Flight Track Log - Related Links

Times and Time Zones

All times are in EDT time to prevent confusion due to time zone crossing. See the N125TV flight status page for this flight to view local times or setup timezone preferences in your user account.

Time Position Orientation Groundspeed Altitude Reporting Facility
EDT Latitude Longitude Course Direction KTS MPH feet Rate Location/Type
Sat 11:04:40 PM 33.2322 -87.5753 192° South 229 264 1,300  Level Atlanta Center
Sat 11:04:52 PM 33.2281 -87.5675 123° Southeast 126 145 1,600 917 Climbing Atlanta Center
Sat 11:05:52 PM 33.1972 -87.5564 163° South 137 158 2,400 709 Climbing Atlanta Center
Sat 11:06:59 PM 33.1550 -87.5722 197° South 144 166 3,100 689 Climbing Atlanta Center
Sat 11:07:54 PM 33.1172 -87.5781 187° South 150 173 3,800 672 Climbing Atlanta Center
Sat 11:08:55 PM 33.0794 -87.5889 194° South 159 183 4,400 645 Climbing Atlanta Center
Sat 11:09:00 PM 32.9676 -87.6762 193° South  Level Estimated
Sat 11:09:55 PM 33.0394 -87.5947 187° South 159 183 5,100  Level Atlanta Center
Sat 11:10:00 PM 32.9254 -87.6867 192° South  Level FlightAware Approximate
Sat 11:10:55 PM 32.9972 -87.6103 197° South 159 183 5,800  Level Atlanta Center
Sat 11:11:55 PM 32.9575 -87.6211 193° South 154 177 6,500 650 Climbing Atlanta Center
Sat 11:12:55 PM 32.9175 -87.6317 192° South 154 177 7,100 550 Climbing Atlanta Center
Sat 11:13:55 PM 32.8753 -87.6450 195° South 154 177 7,600 450 Climbing Atlanta Center
Sat 11:14:55 PM 32.8311 -87.6556 191° South 154 177 8,000 200 Climbing Atlanta Center
Sat 11:15:55 PM 32.7806 -87.6706 194° South 172 198 8,000  Level Atlanta Center
Sat 11:16:55 PM 32.7344 -87.6836 193° South 172 198 8,000  Level Atlanta Center
Sat 11:17:55 PM 32.6858 -87.6964 192° South 178 205 8,000  Level Atlanta Center
Sat 11:18:55 PM 32.6353 -87.7117 194° South 183 211 8,000  Level Atlanta Center
Sat 11:19:55 PM 32.5869 -87.7242 192° South 183 211 8,000  Level Atlanta Center
Sat 11:20:55 PM 32.5344 -87.7394 194° South 183 211 8,000  Level Atlanta Center
Sat 11:21:55 PM 32.4861 -87.7522 193° South 183 211 8,000  Level Atlanta Center
Sat 11:22:55 PM 32.4331 -87.7769 201° Southwest 189 217 8,000  Level Atlanta Center
Sat 11:23:55 PM 32.3825 -87.7919 194° South 189 217 8,000  Level Atlanta Center
Sat 11:24:55 PM 32.3303 -87.7947 183° South 184 212 8,000  Level Atlanta Center
Sat 11:25:55 PM 32.2797 -87.8050 190° South 184 212 8,000  Level Atlanta Center
Sat 11:26:55 PM 32.2314 -87.8225 197° South 184 212 8,000  Level Atlanta Center
Sat 11:27:55 PM 32.1808 -87.8375 194° South 184 212 8,000  Level Atlanta Center
Sat 11:28:55 PM 32.1325 -87.8503 193° South 184 212 8,000  Level Atlanta Center
Sat 11:29:55 PM 32.0797 -87.8625 191° South 184 212 8,000  Level Atlanta Center
Sat 11:30:55 PM 32.0314 -87.8803 197° South 184 212 8,000 -32 Level Atlanta Center
Sat 11:33:01 PM 31.9303 -87.9047 192° South 188 216 7,900 -32 Descending Houston Center
Sat 11:34:01 PM 31.8767 -87.9189 193° South 192 221 7,900  Level Houston Center
Sat 11:35:02 PM 31.8258 -87.9325 193° South 190 219 7,900  Level Houston Center
Sat 11:36:02 PM 31.7731 -87.9483 194° South 192 221 7,900  Level Houston Center
Sat 11:37:02 PM 31.7217 -87.9619 193° South 192 221 7,900  Level Houston Center
Sat 11:38:03 PM 31.6692 -87.9758 193° South 192 221 7,900  Level Houston Center
Sat 11:39:03 PM 31.6175 -87.9886 192° South 191 220 7,900  Level Houston Center
Sat 11:40:04 PM 31.5561 -88.0058 193° South 190 219 7,900  Level Houston Center
Sat 11:41:04 PM 31.5047 -88.0208 194° South 190 219 7,900  Level Houston Center
Sat 11:42:05 PM 31.4528 -88.0344 193° South 190 219 7,900  Level Houston Center
Sat 11:43:05 PM 31.4014 -88.0494 194° South 191 220 7,900 -450 Level Houston Center
Sat 11:44:05 PM 31.3453 -88.0642 193° South 201 231 7,000 -694 Descending Houston Center
Sat 11:45:06 PM 31.2881 -88.0800 193° South 209 241 6,500 -645 Descending Houston Center
Sat 11:46:06 PM 31.2325 -88.0944 193° South 206 237 5,700 -750 Descending Houston Center
Sat 11:47:06 PM 31.1783 -88.1086 193° South 199 229 5,000 -893 Descending Houston Center
Sat 11:48:07 PM 31.1239 -88.1244 194° South 199 229 3,900 -992 Descending Houston Center
Sat 11:49:07 PM 31.0711 -88.1381 192° South 196 226 3,000 -496 Descending Houston Center
Sat 11:50:08 PM 31.0214 -88.1519 193° South 187 215 2,900 -50 Descending Houston Center
Sat 11:51:08 PM 30.9733 -88.1653 193° South 175 201 2,900  Level Houston Center
Sat 11:52:08 PM 30.9250 -88.1781 193° South 175 201 2,900 -248 Level Houston Center
Sat 11:53:09 PM 30.8786 -88.1969 199° South 176 203 2,400 -645 Descending Houston Center
Sat 11:54:09 PM 30.8311 -88.2222 205° Southwest 182 209 1,600 -450 Descending Houston Center
Sat 11:55:09 PM 30.7903 -88.2489 209° Southwest 176 203 1,500 -99 Descending Houston Center
Sat 11:56:10 PM 30.7531 -88.2725 209° Southwest 163 188 1,400 -397 Descending Houston Center
Sat 11:57:10 PM 30.7214 -88.2703 177° South 139 160 700 -550 Descending Houston Center
Sat 11:58:10 PM 30.7039 -88.2550 143° Southeast 117 135 300 -400 Descending Houston Center
Sun 12:00:00 AM 30.6914 -88.2428 192° South  Level Estimated

Login

Don't have an account? Register now (free) for customized features, flight alerts, and more!